createdAt,value
2022-08-22T00:00:51.116Z,21.18
2022-08-22T00:03:11.357Z,21.53
2022-08-22T00:03:43.611Z,21.12
2022-08-22T00:06:31.586Z,21.08
2022-08-22T00:09:37.193Z,21.02
2022-08-22T00:12:24.779Z,20.96
2022-08-22T00:15:42.049Z,20.95
2022-08-22T00:18:10.964Z,20.76
2022-08-22T00:20:49.746Z,20.81
2022-08-22T00:23:36.674Z,20.79
2022-08-22T00:26:45.275Z,20.66
2022-08-22T00:29:17.846Z,20.56
2022-08-22T00:31:52.103Z,20.60
2022-08-22T00:34:22.612Z,20.62
2022-08-22T00:37:12.096Z,20.58
2022-08-22T00:40:03.133Z,20.53
2022-08-22T00:43:04.418Z,20.46
2022-08-22T00:45:40.726Z,20.38
2022-08-22T00:48:27.223Z,20.35
2022-08-22T00:51:34.233Z,20.28
2022-08-22T00:54:17.654Z,20.20
2022-08-22T00:56:59.098Z,20.18
2022-08-22T00:59:45.052Z,20.12
2022-08-22T01:02:43.854Z,20.03
2022-08-22T01:05:25.372Z,20.00
2022-08-22T01:08:16.082Z,19.95
2022-08-22T01:11:28.891Z,19.89
2022-08-22T01:14:34.769Z,19.81
2022-08-22T01:17:27.561Z,19.76
2022-08-22T01:20:33.413Z,19.69
2022-08-22T01:23:25.879Z,19.64
2022-08-22T01:26:22.469Z,19.59
2022-08-22T01:29:04.863Z,19.52
2022-08-22T01:31:51.574Z,19.45
2022-08-22T01:35:01.484Z,19.38
2022-08-22T01:38:07.183Z,19.34
2022-08-22T01:40:56.820Z,19.28
2022-08-22T01:43:58.672Z,19.22
2022-08-22T01:47:13.971Z,19.13
2022-08-22T01:49:55.572Z,19.08
2022-08-22T01:53:03.140Z,19.04
2022-08-22T01:55:46.960Z,18.98
2022-08-22T01:58:21.612Z,18.89
2022-08-22T02:01:25.219Z,18.85
2022-08-22T02:04:31.051Z,18.80
2022-08-22T02:07:07.083Z,18.73
2022-08-22T02:09:53.864Z,18.70
2022-08-22T02:12:40.537Z,18.66
2022-08-22T02:15:17.638Z,18.55
2022-08-22T02:18:09.020Z,18.55
2022-08-22T02:21:04.137Z,18.52
2022-08-22T02:24:05.462Z,18.49
2022-08-22T02:26:50.373Z,18.48
2022-08-22T02:29:29.640Z,18.45
2022-08-22T02:32:15.632Z,18.44
2022-08-22T02:35:00.423Z,18.43
